Temp     Hi    Low   Out    Dew  Wind  Wind   Wind    Hi    Hi   Wind   Heat    THW   THSW                Rain  Solar   Solar Hi Solar   UV    UV    Hi     Heat    Cool    In     In    In     In     In   In Air          Wind  Wind    ISS   Arc.
  Date    Time     Out   Temp   Temp   Hum    Pt. Speed   Dir    Run Speed   Dir  Chill  Index  Index  Index   Bar    Rain  Rate   Rad.  Energy    Rad.  Index  Dose   UV     D-D     D-D    Temp   Hum    Dew   Heat    EMC Density     ET   Samp   Tx   Recept  Int.
------------------------------------------------------------------------------------------------------------------------------------------------------------------------------------------------------------------------------------------------------------------------
 6/20/18 12:30a   60.9   62.4   60.9    63   48.2   0.0   ---   0.00   0.0   ---   60.9   59.9   59.9   55.6  29.934  0.00  0.00     0     0.00      0     0.0  0.00   0.0   0.085   0.000   75.9    41   50.5   75.1   7.75  .0732    0.000   683    2    100.0   30 
 6/20/18  1:00a   60.5   60.9   60.5    62   47.4   0.0   ---   0.00   0.0   ---   60.5   59.4   59.4   55.1  29.931  0.00  0.00     0     0.00      0     0.0  0.00   0.0   0.094   0.000   75.7    41   50.3   74.9   7.75  .0732    0.001   680    2    100.0   30 
 6/20/18  1:30a   59.5   60.5   59.5    63   46.9   0.0   ---   0.00   0.0   ---   59.5   58.4   58.4   54.0  29.928  0.00  0.00     0     0.00      0     0.0  0.00   0.0   0.115   0.000   75.4    40   49.4   74.6   7.64  .0733    0.000   671    2    100.0   30 
 6/20/18  2:00a   58.7   59.5   58.6    67   47.8   0.0   ---   0.00   0.0   ---   58.7   57.8   57.8   53.5  29.928  0.00  0.00     0     0.00      0     0.0  0.00   0.0   0.131   0.000   75.2    40   49.2   74.4   7.65  .0733    0.001   685    2    100.0   30 
 6/20/18  2:30a   58.6   58.7   58.3    68   48.1   0.0   ---   0.00   0.0   ---   58.6   57.8   57.8   53.5  29.930  0.00  0.00     0     0.00      0     0.0  0.00   0.0   0.133   0.000   74.9    40   48.9   74.1   7.65  .0734    0.000   681    2    100.0   30 
 6/20/18  3:00a   58.4   58.7   58.4    67   47.5   0.0   ---   0.00   0.0   ---   58.4   57.5   57.5   53.2  29.926  0.00  0.00     0     0.00      0     0.0  0.00   0.0   0.137   0.000   74.7    41   49.4   74.0   7.76  .0734    0.001   676    2    100.0   30 
 6/20/18  3:30a   57.6   58.4   57.6    69   47.5   0.0   ---   0.00   0.0   ---   57.6   56.8   56.8   52.5  29.923  0.00  0.00     0     0.00      0     0.0  0.00   0.0   0.154   0.000   74.5    41   49.2   73.7   7.77  .0734    0.000   683    2    100.0   30 
 6/20/18  4:00a   56.9   57.6   56.9    70   47.2   0.0   ---   0.00   0.0   ---   56.9   56.1   56.1   51.8  29.919  0.00  0.00     0     0.00      0     0.0  0.00   0.0   0.169   0.000   74.2    41   49.0   73.4   7.78  .0735    0.001   674    2    100.0   30 
 6/20/18  4:30a   56.3   56.9   56.3    72   47.4   0.0   ---   0.00   0.0   ---   56.3   55.6   55.6   51.3  29.916  0.00  0.00     0     0.00      0     0.0  0.00   0.0   0.181   0.000   74.0    41   48.8   73.2   7.79  .0735    0.000   680    2    100.0   30 
 6/20/18  5:00a   55.6   56.3   55.6    72   46.7   0.0   ---   0.00   0.0   ---   55.6   54.9   54.9   50.5  29.912  0.00  0.00     0     0.00      0     0.0  0.00   0.0   0.196   0.000   73.6    41   48.4   72.6   7.81  .0735    0.001   685    2    100.0   30 
 6/20/18  5:30a   54.7   55.6   54.7    74   46.6   0.0   ---   0.00   0.0   ---   54.7   54.1   54.1   49.7  29.911  0.00  0.00     0     0.00      0     0.0  0.00   0.0   0.215   0.000   73.5    41   48.4   72.5   7.81  .0736    0.000   669    2    100.0   30 
 6/20/18  6:00a   53.9   54.7   53.9    75   46.2   0.0   ---   0.00   0.0   ---   53.9   53.4   53.4   49.1  29.911  0.00  0.00     3     0.13      9     0.0  0.00   0.0   0.231   0.000   73.1    41   48.0   71.9   7.83  .0736    0.000   684    2    100.0   30 
 6/20/18  6:30a   53.3   53.9   53.3    75   45.6   0.0   ---   0.00   0.0   ---   53.3   52.8   52.8   48.7  29.913  0.00  0.00    14     0.60     18     0.0  0.00   0.0   0.244   0.000   73.0    41   47.9   71.8   7.83  .0736    0.000   684    2    100.0   30 
 6/20/18  7:00a   54.2   54.2   53.3    78   47.5   0.0   ---   0.00   0.0   ---   54.2   53.8   53.8   52.2  29.922  0.00  0.00    23     0.99     26     0.0  0.00   0.0   0.225   0.000   73.3    41   48.2   72.2   7.82  .0736    0.001   672    2    100.0   30 
 6/20/18  7:30a   57.4   57.4   54.2    75   49.5   0.0   ---   0.00   0.0   ---   57.4   56.9   56.9   57.9  29.923  0.00  0.00    86     3.70    241     0.0  0.00   0.5   0.158   0.000   73.3    42   48.8   72.3   7.98  .0736    0.000   678    2    100.0   30 
 6/20/18  8:00a   64.2   64.2   57.4    64   51.8   0.0     W   0.00   2.0     W   64.2   63.7   63.7   70.5  29.928  0.00  0.00   289    12.43    336     0.0  0.00   0.5   0.017   0.000   73.3    42   48.8   72.3   7.98  .0736    0.004   684    2    100.0   30 
 6/20/18  8:30a   70.3   70.3   64.3    54   52.9   2.0    NW   1.00  10.0    NW   70.3   69.0   69.0   77.2  29.927  0.00  0.00   386    16.60    432     0.9  0.14   1.3   0.000   0.110   73.5    42   49.0   72.5   7.98  .0736    0.000   670    2    100.0   30 
 6/20/18  9:00a   72.4   72.4   70.3    50   52.7   4.0   NNW   2.00  12.0   NNW   72.4   71.7   71.7   80.8  29.924  0.00  0.00   482    20.73    529     1.8  0.29   2.2   0.000   0.154   73.8    42   49.3   72.9   7.97  .0735    0.012   682    2    100.0   30 
 6/20/18  9:30a   74.4   74.4   72.4    47   52.9   5.0   NNW   2.50  12.0   NNW   74.4   74.1   74.1   83.7  29.917  0.00  0.00   576    24.77    621     2.7  0.43   3.2   0.000   0.196   74.2    42   49.6   73.5   7.97  .0734    0.000   685    2    100.0   30 
 6/20/18 10:00a   77.1   77.1   74.5    43   52.9   4.0   NNW   2.00  10.0   NNW   77.1   76.5   76.5   86.3  29.909  0.00  0.00   664    28.56    705     3.8  0.61   4.4   0.000   0.252   74.3    42   49.7   73.6   7.96  .0734    0.018   670    2    100.0   30 
 6/20/18 10:30a   79.1   79.1   77.1    42   54.0   4.0   NNW   2.00  12.0   NNW   79.1   78.5   78.5   88.6  29.903  0.00  0.00   744    32.00    780     5.0  0.80   5.5   0.000   0.294   74.7    42   50.1   74.0   7.96  .0733    0.000   686    2    100.0   30 
 6/20/18 11:00a   79.5   79.6   79.1    41   53.7   7.0   NNW   3.50  14.0   NNW   79.5   78.7   78.7   88.6  29.904  0.00  0.00   812    34.92    840     6.1  0.98   6.6   0.000   0.302   75.0    42   50.3   74.4   7.95  .0733    0.023   678    2    100.0   30 
 6/20/18 11:30a   80.8   80.8   79.5    38   52.8   8.0   NNW   4.00  13.0   NNW   80.4   79.6   79.2   88.6  29.894  0.00  0.00   866    37.24    888     7.1  1.14   7.5   0.000   0.329   75.2    42   50.5   74.6   7.95  .0732    0.000   678    2    100.0   30 
 6/20/18 12:00p   81.1   81.3   80.8    39   53.8  10.0   NNW   5.00  18.0   NNW   79.6   80.0   78.5   87.2  29.889  0.00  0.00   909    39.09    925     8.0  1.29   8.3   0.000   0.335   75.6    42   50.9   74.9   7.94  .0731    0.028   683    2    100.0   30 
 6/20/18 12:30p   81.8   81.8   81.1    39   54.4  11.0   NNW   5.50  19.0   NNW   80.1   80.9   79.2   87.4  29.886  0.00  0.00   939    40.38    947     8.5  1.37   8.7   0.000   0.350   76.1    42   51.3   75.4   7.93  .0730    0.000   642    2     96.3   30 
 6/20/18  1:00p   81.3   81.9   81.2    40   54.7  12.0   NNW   6.00  19.0   NNW   79.3   80.4   78.4   86.3  29.885  0.00  0.00   950    40.86    956     8.8  1.41   8.9   0.000   0.340   76.6    42   51.8   75.9   7.92  .0730    0.031   683    2    100.0   30 
 6/20/18  1:30p   82.7   82.7   81.3    39   55.2  11.0   NNW   5.50  19.0   NNW   81.1   82.1   80.5   88.6  29.880  0.00  0.00   949    40.81    954     8.7  1.40   8.9   0.000   0.369   77.0    43   52.8   76.4   8.05  .0729    0.000   679    2    100.0   30 
 6/20/18  2:00p   82.9   83.3   82.6    39   55.4  12.0   NNW   6.00  21.0   NNW   81.1   82.4   80.6   88.3  29.877  0.00  0.00   933    40.12    944     8.3  1.33   8.6   0.000   0.373   77.2    43   53.0   76.6   8.05  .0728    0.031   675    2    100.0   30 
 6/20/18  2:30p   83.4   83.7   82.5    38   55.1  13.0   NNW   6.50  21.0   NNW   81.5   83.0   81.1   88.6  29.875  0.00  0.00   902    38.79    921     7.6  1.22   8.0   0.000   0.383   77.5    42   52.6   76.8   7.90  .0728    0.000   683    2    100.0   30 
 6/20/18  3:00p   83.6   83.8   82.9    38   55.3  14.0   NNW   7.00  22.0   NNW   81.5   83.3   81.2   88.3  29.877  0.00  0.00   858    36.90    881     6.7  1.08   7.1   0.000   0.387   77.7    42   52.8   77.0   7.90  .0728    0.031   677    2    100.0   30 
 6/20/18  3:30p   84.7   84.8   83.6    38   56.3  12.0   NNW   6.00  24.0   NNW   83.2   84.5   83.0   90.2  29.873  0.00  0.00   804    34.58    831     5.6  0.90   6.1   0.000   0.410   77.9    43   53.6   77.3   8.05  .0727    0.000   679    2    100.0   30 
 6/20/18  4:00p   83.6   84.7   83.4    39   56.0  13.0   NNW   6.50  25.0   NNW   81.7   83.5   81.6   88.8  29.868  0.00  0.00   739    31.78    772     4.5  0.72   5.0   0.000   0.387   78.2    43   53.9   77.6   8.05  .0726    0.028   684    2    100.0   30 
 6/20/18  4:30p   83.9   84.0   83.3    39   56.3  12.0   NNW   6.00  20.0   NNW   82.3   83.9   82.3   89.9  29.861  0.00  0.00   660    28.38    696     3.3  0.53   3.9   0.000   0.394   78.6    43   54.2   78.1   8.05  .0725    0.000   667    2    100.0   30 
 6/20/18  5:00p   83.8   84.0   83.2    39   56.2  11.0   NNW   5.50  22.0   NNW   82.5   83.8   82.5   90.5  29.859  0.00  0.00   575    24.73    619     2.3  0.37   2.8   0.000   0.392   78.8    44   55.0   78.4   8.17  .0725    0.024   684    2    100.0   30 
 6/20/18  5:30p   83.0   83.8   82.9    39   55.5  11.0   NNW   5.50  19.0   NNW   81.5   82.5   81.0   88.8  29.858  0.00  0.00   485    20.86    529     1.5  0.24   1.8   0.000   0.375   79.2    44   55.4   78.8   8.17  .0724    0.000   682    2    100.0   30 
 6/20/18  6:00p   82.8   83.1   82.8    39   55.3  11.0   NNW   5.50  18.0     N   81.3   82.3   80.8   88.3  29.859  0.00  0.00   396    17.03    439     0.8  0.13   1.1   0.000   0.371   79.9    43   55.4   79.3   8.05  .0723    0.019   674    2    100.0   30 
 6/20/18  6:30p   82.0   82.8   82.0    39   54.6  10.0   NNW   5.00  17.0   NNW   80.6   81.2   79.8   86.7  29.864  0.00  0.00   306    13.16    350     0.1  0.02   0.5   0.000   0.354   80.3    42   55.1   79.5   7.85  .0723    0.000   685    2    100.0   30 
 6/20/18  7:00p   81.2   82.0   81.2    40   54.6   7.0   NNW   3.50  14.0   NNW   81.2   80.3   80.3   85.3  29.876  0.00  0.00   205     8.82    258     0.0  0.00   0.0   0.000   0.337   80.5    43   55.9   79.9   8.04  .0723    0.012   676    2    100.0   30 
 6/20/18  7:30p   79.7   81.2   79.7    42   54.6   3.0   NNW   1.50  11.0   NNW   79.7   79.0   79.0   77.0  29.881  0.00  0.00    90     3.87    146     0.0  0.00   0.0   0.000   0.306   80.1    41   54.3   79.2   7.75  .0724    0.000   678    2    100.0   30 
 6/20/18  8:00p   77.3   79.7   77.3    45   54.3   2.0   NNW   1.00   9.0   NNW   77.3   76.8   76.8   73.1  29.888  0.00  0.00    14     0.60     19     0.0  0.00   0.0   0.000   0.256   79.7    41   53.9   78.9   7.75  .0725    0.003   682    2    100.0   30 
 6/20/18  8:30p   75.7   77.3   75.7    47   54.0   0.0   NNW   0.00   3.0   NNW   75.7   75.5   75.5   71.5  29.889  0.00  0.00     1     0.04      7     0.0  0.00   0.0   0.000   0.223   79.7    41   53.9   78.9   7.75  .0725    0.000   672    2    100.0   30 
 6/20/18  9:00p   73.7   75.7   73.7    49   53.3   1.0   NNW   0.50   7.0   NNW   73.7   73.3   73.3   69.3  29.893  0.00  0.00     0     0.00      0     0.0  0.00   0.0   0.000   0.181   79.7    41   53.9   78.9   7.75  .0725    0.001   682    2    100.0   30 
 6/20/18  9:30p   72.7   73.7   72.7    51   53.5   0.0   ---   0.00   0.0   ---   72.7   72.2   72.2   68.2  29.899  0.00  0.00     0     0.00      0     0.0  0.00   0.0   0.000   0.160   80.1    42   54.9   79.3   7.85  .0724    0.000   680    2    100.0   30 
 6/20/18 10:00p   71.3   72.7   71.3    53   53.3   0.0   ---   0.00   0.0   ---   71.3   70.3   70.3   66.3  29.903  0.00  0.00     0     0.00      0     0.0  0.00   0.0   0.000   0.131   79.9    41   54.1   79.0   7.75  .0725    0.002   672    2    100.0   30 
 6/20/18 10:30p   69.6   71.3   69.6    55   52.7   0.0   ---   0.00   0.0   ---   69.6   68.4   68.4   64.3  29.909  0.00  0.00     0     0.00      0     0.0  0.00   0.0   0.000   0.096   79.5    42   54.4   78.8   7.86  .0725    0.000   686    2    100.0   30 
 6/20/18 11:00p   68.2   69.6   68.2    56   51.9   0.0   ---   0.00   0.0   ---   68.2   67.5   67.5   63.4  29.908  0.00  0.00     0     0.00      0     0.0  0.00   0.0   0.000   0.067   78.0    41   52.4   77.2   7.75  .0728    0.002   677    2    100.0   30 
 6/20/18 11:30p   66.8   68.2   66.8    58   51.5   0.0   ---   0.00   0.0   ---   66.8   66.1   66.1   62.0  29.910  0.00  0.00     0     0.00      0     0.0  0.00   0.0   0.000   0.038   77.3    41   51.8   76.5   7.75  .0729    0.000   677    2    100.0   30 
 6/21/18 12:00a   66.4   66.8   66.4    58   51.2   0.0   ---   0.00   0.0   ---   66.4   65.6   65.6   61.5  29.909  0.00  0.00     0     0.00      0     0.0  0.00   0.0   0.000   0.029   77.3    41   51.8   76.5   7.75  .0729    0.002   684    2    100.0   30 
 6/21/18 12:30a   66.2   66.5   66.2    61   52.3   0.0   ---   0.00   0.0   ---   66.2   65.6   65.6   61.5  29.907  0.00  0.00     0     0.00      0     0.0  0.00   0.0   0.000   0.025   77.2    42   52.3   76.5   7.91  .0729    0.000   673    2    100.0   30 
 6/21/18  1:00a   65.2   66.2   65.2    61   51.4   0.0   NNW   0.00   4.0   NNW   65.2   64.5   64.5   60.4  29.907  0.00  0.00     0     0.00      0     0.0  0.00   0.0   0.000   0.004   77.2    42   52.3   76.5   7.91  .0729    0.001   684    2    100.0   30 
 6/21/18  1:30a   63.7   65.2   63.7    64   51.3   0.0   ---   0.00   0.0   ---   63.7   63.1   63.1   59.0  29.905  0.00  0.00     0     0.00      0     0.0  0.00   0.0   0.027   0.000   77.0    42   52.1   76.3   7.91  .0729    0.000   683    2    100.0   30 
 6/21/18  2:00a   62.8   63.7   62.8    64   50.4   0.0   NNW   0.00   1.0   NNW   62.8   62.1   62.1   57.9  29.900  0.00  0.00     0     0.00      0     0.0  0.00   0.0   0.046   0.000   76.8    42   52.0   76.1   7.91  .0730    0.001   671    2    100.0   30 
 6/21/18  2:30a   62.0   62.8   62.0    65   50.1   0.0   ---   0.00   0.0   ---   62.0   61.3   61.3   57.1  29.896  0.00  0.00     0     0.00      0     0.0  0.00   0.0   0.063   0.000   76.6    42   51.8   75.9   7.92  .0730    0.000   685    2    100.0   30 
 6/21/18  3:00a   61.3   61.9   61.2    68   50.6   0.0   ---   0.00   0.0   ---   61.3   60.6   60.6   56.4  29.894  0.00  0.00     0     0.00      0     0.0  0.00   0.0   0.077   0.000   76.4    42   51.6   75.7   7.92  .0730    0.001   680    2    100.0   30 
 6/21/18  3:30a   61.4   61.5   61.2    67   50.3   0.0   NNW   0.00   2.0   NNW   61.4   60.7   60.7   56.5  29.893  0.00  0.00     0     0.00      0     0.0  0.00   0.0   0.075   0.000   76.3    42   51.5   75.6   7.92  .0730    0.000   671    2    100.0   30 
 6/21/18  4:00a   60.8   61.4   60.8    68   50.2   1.0   NNW   0.50   5.0   NNW   60.8   60.1   60.1   55.9  29.890  0.00  0.00     0     0.00      0     0.0  0.00   0.0   0.088   0.000   75.9    42   51.2   75.2   7.93  .0731    0.001   683    2    100.0   30 
 6/21/18  4:30a   60.1   60.9   60.1    68   49.5   0.0   NNW   0.00   3.0   NNW   60.1   59.4   59.4   55.2  29.890  0.00  0.00     0     0.00      0     0.0  0.00   0.0   0.102   0.000   75.7    42   51.0   75.0   7.94  .0731    0.000   679    2    100.0   30 
 6/21/18  5:00a   58.5   60.2   58.5    71   49.1   0.0   ---   0.00   0.0   ---   58.5   57.8   57.8   53.6  29.888  0.00  0.00     0     0.00      0     0.0  0.00   0.0   0.135   0.000   75.6    42   50.9   74.9   7.94  .0731    0.001   673    2    100.0   30 
 6/21/18  5:30a   57.4   58.5   57.4    73   48.8   0.0   ---   0.00   0.0   ---   57.4   56.8   56.8   52.5  29.887  0.00  0.00     0     0.00      0     0.0  0.00   0.0   0.158   0.000   75.2    42   50.5   74.6   7.95  .0732    0.000   682    2    100.0   30 
 6/21/18  6:00a   56.3   57.4   56.3    76   48.8   0.0   ---   0.00   0.0   ---   56.3   55.8   55.8   51.6  29.894  0.00  0.00     3     0.13      9     0.0  0.00   0.0   0.181   0.000   75.0    42   50.3   74.4   7.95  .0732    0.000   672    2    100.0   30 
 6/21/18  6:30a   55.9   56.3   55.9    78   49.1   0.0   ---   0.00   0.0   ---   55.9   55.5   55.5   51.6  29.895  0.00  0.00    15     0.65     19     0.0  0.00   0.0   0.190   0.000   74.9    42   50.3   74.3   7.95  .0733    0.000   681    2    100.0   30 
 6/21/18  7:00a   56.7   56.7   55.9    78   49.9   0.0   ---   0.00   0.0   ---   56.7   56.3   56.3   54.7  29.893  0.00  0.00    23     0.99     26     0.0  0.00   0.0   0.173   0.000   74.2    43   50.3   73.5   8.08  .0734    0.001   681    2    100.0   30 
 6/21/18  7:30a   61.3   61.3   56.7    74   52.9   0.0   NNW   0.00   4.0   NNW   61.3   61.0   61.0   62.1  29.898  0.00  0.00    86     3.70    243     0.0  0.00   0.0   0.077   0.000   74.3    43   50.4   73.6   8.08  .0734    0.000   674    2    100.0   30 
 6/21/18  8:00a   67.1   67.1   61.3    62   53.6   3.0   NNW   1.50   9.0   NNW   67.1   66.8   66.8   73.8  29.898  0.00  0.00   292    12.56    338     0.2  0.03   0.6   0.000   0.044   74.5    43   50.5   73.9   8.07  .0733    0.005   678    2    100.0   30 
 6/21/18  8:30a   69.5   69.5   67.2    57   53.6   5.0   NNW   2.50  10.0   NNW   69.5   68.5   68.5   76.8  29.899  0.00  0.00   388    16.69    434     1.0  0.16   1.3   0.000   0.094   74.9    43   50.9   74.4   8.05  .0733    0.000   684    2    100.0   30 
 6/21/18  9:00a   71.3   71.3   69.5    53   53.3   5.0   NNW   2.50  11.0   NNW   71.3   70.3   70.3   79.4  29.896  0.00  0.00   484    20.81    529     1.7  0.27   2.2   0.000   0.131   75.0    44   51.6   74.6   8.25  .0732    0.012   672    2    100.0   30 
 6/21/18  9:30a   73.3   73.3   71.3    50   53.5   7.0   NNW   3.50  13.0   NNW   73.3   72.9   72.9   82.3  29.889  0.00  0.00   578    24.86    622     2.7  0.43   3.2   0.000   0.173   75.2    44   51.8   74.8   8.25  .0732    0.000   684    2    100.0   30 
 6/21/18 10:00a   75.4   75.4   73.2    46   53.2   7.0   NNW   3.50  14.0     N   75.4   75.1   75.1   84.8  29.886  0.00  0.00   665    28.60    705     3.8  0.61   4.3   0.000   0.217   75.6    44   52.1   75.1   8.24  .0731    0.018   682    2    100.0   30 
 6/21/18 10:30a   76.6   76.6   75.4    44   53.1   9.0   NNW   4.50  18.0   NNW   75.4   76.1   74.9   83.9  29.885  0.00  0.00   744    32.00    779     4.9  0.79   5.5   0.000   0.242   75.9    44   52.4   75.4   8.23  .0730    0.000   674    2    100.0   30 
 6/21/18 11:00a   77.1   77.1   76.5    44   53.5  11.0   NNW   5.50  18.0   NNW   74.8   76.5   74.2   82.7  29.885  0.00  0.00   811    34.88    840     6.1  0.98   6.6   0.000   0.252   76.1    43   52.0   75.5   8.05  .0730    0.024   684    2    100.0   30 
 6/21/18 11:30a   78.7   78.7   77.2    39   51.7  10.0   NNW   5.00  19.0   NNW   77.0   77.8   76.1   84.8  29.887  0.00  0.00   869    37.37    893     7.1  1.14   7.5   0.000   0.285   76.4    43   52.2   75.8   8.05  .0730    0.000   678    2    100.0   30 
 6/21/18 12:00p   80.5   80.5   78.8    35   50.3   9.0   NNW   4.50  19.0   NNW   79.5   79.0   78.0   86.8  29.887  0.00  0.00   917    39.44    935     8.0  1.29   8.3   0.000   0.323   76.6    43   52.4   76.0   8.05  .0729    0.028   679    2    100.0   30 
 6/21/18 12:30p   87.1   87.2   80.5    30   51.9  11.0   NNW   5.50  20.0   NNW   86.3   85.3   84.5   92.7  29.884  0.00  0.00   935    40.21    935     8.3  1.33   8.3   0.000   0.460   77.2    43   53.0   76.6   8.05  .0728    0.000   618    2     92.7   30 
 6/21/18  1:00p   86.5   87.1   86.4    28   49.5  13.0   NNW   6.50  22.0   NNW   85.2   84.4   83.1   90.7  29.876  0.00  0.00   935    40.21    935     8.3  1.33   8.3   0.000   0.448   77.7    43   53.4   77.1   8.05  .0727    0.000   684    2    100.0   30 
 6/21/18  1:30p   88.1   88.1   86.4    26   48.9  14.0   NNW   7.00  23.0   NNW   87.0   85.2   84.1   91.4  29.874  0.00  0.00   935    40.21    935     8.3  1.33   8.3   0.000   0.481   77.9    43   53.6   77.3   8.05  .0727    0.000   676    2    100.0   30 
 6/21/18  2:00p   82.2   88.5   81.6    25   42.9  13.0   NNW   6.50  22.0   NNW   80.0   79.7   77.5    ---  29.873  0.00  0.00   ---      ---    ---     ---   ---   ---   0.000   0.358   78.0    42   53.0   77.3   7.89  .0727    0.000   684    2    100.0   30 
 6/21/18  2:30p   82.4   82.6   81.8    25   43.0  13.0   NNW   6.50  25.0    NW   80.3   79.9   77.8    ---  29.875  0.00  0.00   ---      ---    ---     ---   ---   ---   0.000   0.363   78.0    42   53.0   77.3   7.89  .0727    0.000   677    2    100.0   30 
 6/21/18  3:00p   82.4   82.6   81.8    25   43.0  13.0   NNW   6.50  20.0   NNW   80.3   79.9   77.8    ---  29.877  0.00  0.00   ---      ---    ---     ---   ---   ---   0.000   0.363   78.4    42   53.4   77.7   7.88  .0726    0.000   671    2    100.0   30 
 6/21/18  3:30p   82.0   82.4   81.6    25   42.7  11.0   NNW   5.50  22.0   NNW   80.3   79.5   77.8    ---  29.875  0.00  0.00   ---      ---    ---     ---   ---   ---   0.000   0.354   78.6    42   53.6   78.0   7.88  .0726    0.000   686    2    100.0   30 
 6/21/18  4:00p   83.2   83.2   81.8    23   41.5   9.0   NNW   4.50  16.0   NNW   82.4   80.5   79.7    ---  29.868  0.00  0.00   ---      ---    ---     ---   ---   ---   0.000   0.379   78.8    42   53.8   78.2   7.87  .0725    0.000   683    2    100.0   30 
 6/21/18  4:30p   82.6   83.2   82.4    23   41.0  11.0   NNW   5.50  18.0   NNW   81.0   79.8   78.2    ---  29.862  0.00  0.00   ---      ---    ---     ---   ---   ---   0.000   0.367   79.0    42   53.9   78.4   7.87  .0725    0.000   674    2    100.0   30 
 6/21/18  5:00p   82.6   82.6   81.8    22   39.9   8.0   NNW   4.00  16.0   NNW   82.3   79.8   79.5    ---  29.860  0.00  0.00   ---      ---    ---     ---   ---   ---   0.000   0.367   79.2    41   53.5   78.5   7.75  .0725    0.000   674    2    100.0   30 
 6/21/18  5:30p   83.0   83.0   82.4    23   41.4   6.0   NNW   3.00  14.0   NNW   83.0   80.2   80.2    ---  29.852  0.00  0.00   ---      ---    ---     ---   ---   ---   0.000   0.375   79.5    41   53.7   78.7   7.75  .0724    0.000   683    2    100.0   30 
 6/21/18  6:00p   81.6   83.4   81.6    23   40.2   8.0   NNW   4.00  17.0   NNW   81.3   78.8   78.5    ---  29.857  0.00  0.00   ---      ---    ---     ---   ---   ---   0.000   0.346   79.7    42   54.6   79.0   7.86  .0724    0.000   683    2    100.0   30 
 6/21/18  6:30p   81.4   82.0   81.4    22   38.9   5.0    NW   2.50  15.0   WNW   81.4   78.5   78.5    ---  29.866  0.00  0.00   ---      ---    ---     ---   ---   ---   0.000   0.342   79.9    34   49.0   78.3   6.65  .0726    0.000   670    2    100.0   30 
 6/21/18  7:00p   80.1   81.4   80.1    23   38.9   4.0   NNW   2.00  13.0   NNW   80.1   77.4   77.4    ---  29.873  0.00  0.00   ---      ---    ---     ---   ---   ---   0.000   0.315   80.1    33   48.4   78.4   6.55  .0726    0.000   678    2    100.0   30 
 6/21/18  7:30p   79.0   80.1   79.0    24   39.1   2.0   NNW   1.00   8.0   NNW   79.0   76.6   76.6    ---  29.877  0.00  0.00   ---      ---    ---     ---   ---   ---   0.000   0.292   80.3    33   48.6   78.6   6.54  .0725    0.000   683    2    100.0   30 
 6/21/18  8:00p   77.0   79.0   77.0    27   40.4   0.0   NNW   0.00   3.0   NNW   77.0   75.7   75.7    ---  29.879  0.00  0.00   ---      ---    ---     ---   ---   ---   0.000   0.250   80.3    34   49.4   78.7   6.64  .0725    0.000   685    2    100.0   30 
 6/21/18  8:30p   75.6   77.0   75.6    27   39.2   2.0    NW   1.00  10.0    NW   75.6   73.9   73.9    ---  29.880  0.00  0.00   ---      ---    ---     ---   ---   ---   0.000   0.221   80.1    34   49.2   78.5   6.65  .0726    0.000   666    2     99.9   30 
 6/21/18  9:00p   73.9   75.6   73.9    30   40.5   0.0    NW   0.00   3.0    NW   73.9   72.1   72.1    ---  29.886  0.00  0.00   ---      ---    ---     ---   ---   ---   0.000   0.185   79.7    34   48.8   78.2   6.66  .0726    0.000   683    2    100.0   30 
 6/21/18  9:30p   71.8   73.9   71.8    33   41.1   0.0    NW   0.00   4.0    NW   71.8   69.1   69.1    ---  29.897  0.00  0.00   ---      ---    ---     ---   ---   ---   0.000   0.142   79.9    34   49.0   78.3   6.65  .0726    0.000   680    2    100.0   30 
 6/21/18 10:00p   70.1   71.8   70.1    35   41.2   0.0   ---   0.00   0.0   ---   70.1   67.0   67.0    ---  29.903  0.00  0.00   ---      ---    ---     ---   ---   ---   0.000   0.106   79.2    33   47.6   77.7   6.55  .0728    0.000   683    2    100.0   30 
 6/21/18 10:30p   69.1   70.1   69.1    36   41.0   0.0   ---   0.00   0.0   ---   69.1   66.2   66.2    ---  29.905  0.00  0.00   ---      ---    ---     ---   ---   ---   0.000   0.085   76.6    35   46.9   75.5   6.92  .0732    0.000   669    2    100.0   30